sensor_id;sensor_type;location;lat;lon;timestamp;pressure;altitude;pressure_sealevel;temperature;humidity
10008;BME280;5043;41.766;26.204;2024-02-14T00:01:33;100551.31;;;9.50;100.00
10008;BME280;5043;41.766;26.204;2024-02-14T00:04:03;100558.47;;;9.48;100.00
10008;BME280;5043;41.766;26.204;2024-02-14T00:06:28;100580.88;;;9.66;100.00
10008;BME280;5043;41.766;26.204;2024-02-14T00:08:54;100581.00;;;9.64;100.00
10008;BME280;5043;41.766;26.204;2024-02-14T00:11:19;100563.72;;;9.48;100.00
10008;BME280;5043;41.766;26.204;2024-02-14T00:13:45;100571.84;;;9.70;100.00
10008;BME280;5043;41.766;26.204;2024-02-14T00:16:10;100576.13;;;9.71;100.00
10008;BME280;5043;41.766;26.204;2024-02-14T00:18:35;100585.53;;;9.75;100.00
10008;BME280;5043;41.766;26.204;2024-02-14T00:21:01;100585.63;;;9.74;100.00
10008;BME280;5043;41.766;26.204;2024-02-14T00:23:28;100549.91;;;9.57;100.00
10008;BME280;5043;41.766;26.204;2024-02-14T00:25:53;100583.50;;;9.79;100.00
10008;BME280;5043;41.766;26.204;2024-02-14T00:28:19;100591.94;;;9.84;100.00
10008;BME280;5043;41.766;26.204;2024-02-14T00:30:44;100556.97;;;9.69;100.00
10008;BME280;5043;41.766;26.204;2024-02-14T00:33:10;100549.59;;;9.61;100.00
10008;BME280;5043;41.766;26.204;2024-02-14T00:35:36;100570.97;;;9.69;100.00
10008;BME280;5043;41.766;26.204;2024-02-14T00:38:04;100557.69;;;9.71;100.00
10008;BME280;5043;41.766;26.204;2024-02-14T00:40:30;100561.50;;;9.67;100.00
10008;BME280;5043;41.766;26.204;2024-02-14T00:42:55;100561.38;;;9.68;100.00
10008;BME280;5043;41.766;26.204;2024-02-14T00:45:21;100586.25;;;9.77;100.00
10008;BME280;5043;41.766;26.204;2024-02-14T00:47:46;100542.78;;;9.46;100.00
10008;BME280;5043;41.766;26.204;2024-02-14T00:50:12;100582.03;;;9.75;100.00
10008;BME280;5043;41.766;26.204;2024-02-14T00:52:39;100577.31;;;9.67;100.00
10008;BME280;5043;41.766;26.204;2024-02-14T00:55:04;100579.81;;;9.68;100.00
10008;BME280;5043;41.766;26.204;2024-02-14T00:57:31;100577.84;;;9.59;100.00
10008;BME280;5043;41.766;26.204;2024-02-14T00:59:57;100585.94;;;9.69;100.00
10008;BME280;5043;41.766;26.204;2024-02-14T01:02:22;100578.06;;;9.56;100.00
10008;BME280;5043;41.766;26.204;2024-02-14T01:04:48;100572.69;;;9.58;100.00
10008;BME280;5043;41.766;26.204;2024-02-14T01:07:13;100576.47;;;9.66;100.00
10008;BME280;5043;41.766;26.204;2024-02-14T01:09:39;100554.16;;;9.47;100.00
10008;BME280;5043;41.766;26.204;2024-02-14T01:12:04;100579.53;;;9.60;100.00
10008;BME280;5043;41.766;26.204;2024-02-14T01:14:31;100593.22;;;9.65;100.00
10008;BME280;5043;41.766;26.204;2024-02-14T01:16:56;100595.75;;;9.67;100.00
10008;BME280;5043;41.766;26.204;2024-02-14T01:19:22;100573.84;;;9.54;100.00
10008;BME280;5043;41.766;26.204;2024-02-14T01:21:49;100581.31;;;9.60;100.00
10008;BME280;5043;41.766;26.204;2024-02-14T01:24:15;100591.09;;;9.70;100.00
10008;BME280;5043;41.766;26.204;2024-02-14T01:26:41;100631.03;;;9.77;100.00
10008;BME280;5043;41.766;26.204;2024-02-14T01:29:07;100587.31;;;9.62;100.00
10008;BME280;5043;41.766;26.204;2024-02-14T01:31:33;100594.47;;;9.73;100.00
10008;BME280;5043;41.766;26.204;2024-02-14T01:33:59;100602.47;;;9.71;100.00
10008;BME280;5043;41.766;26.204;2024-02-14T01:36:28;100595.94;;;9.64;100.00
10008;BME280;5043;41.766;26.204;2024-02-14T01:38:54;100596.59;;;9.67;100.00
10008;BME280;5043;41.766;26.204;2024-02-14T01:41:19;100494.47;;;9.10;100.00
10008;BME280;5043;41.766;26.204;2024-02-14T01:43:47;100580.81;;;9.42;100.00
10008;BME280;5043;41.766;26.204;2024-02-14T01:46:12;100594.59;;;9.46;100.00
10008;BME280;5043;41.766;26.204;2024-02-14T01:48:38;100586.25;;;9.52;100.00
10008;BME280;5043;41.766;26.204;2024-02-14T01:51:05;100586.25;;;9.52;100.00
10008;BME280;5043;41.766;26.204;2024-02-14T01:53:35;100605.47;;;9.54;100.00
10008;BME280;5043;41.766;26.204;2024-02-14T01:56:01;100593.66;;;9.47;100.00
10008;BME280;5043;41.766;26.204;2024-02-14T01:58:29;100596.06;;;9.50;100.00
10008;BME280;5043;41.766;26.204;2024-02-14T02:00:55;100596.28;;;9.47;100.00
10008;BME280;5043;41.766;26.204;2024-02-14T02:03:23;100527.94;;;9.08;100.00
10008;BME280;5043;41.766;26.204;2024-02-14T02:05:49;100499.41;;;8.89;100.00
10008;BME280;5043;41.766;26.204;2024-02-14T02:08:15;100594.72;;;9.44;100.00
10008;BME280;5043;41.766;26.204;2024-02-14T02:10:40;100597.34;;;9.44;100.00
10008;BME280;5043;41.766;26.204;2024-02-14T02:13:06;100597.88;;;9.37;100.00
10008;BME280;5043;41.766;26.204;2024-02-14T02:15:31;100598.19;;;9.32;100.00
10008;BME280;5043;41.766;26.204;2024-02-14T02:17:57;100599.97;;;9.32;100.00
10008;BME280;5043;41.766;26.204;2024-02-14T02:20:23;100608.19;;;9.40;100.00
10008;BME280;5043;41.766;26.204;2024-02-14T02:22:48;100605.88;;;9.48;100.00
10008;BME280;5043;41.766;26.204;2024-02-14T02:25:14;100606.50;;;9.51;100.00
10008;BME280;5043;41.766;26.204;2024-02-14T02:27:40;100599.22;;;9.55;100.00
10008;BME280;5043;41.766;26.204;2024-02-14T02:30:06;100602.50;;;9.58;100.00
10008;BME280;5043;41.766;26.204;2024-02-14T02:32:32;100557.53;;;9.36;100.00
10008;BME280;5043;41.766;26.204;2024-02-14T02:34:57;100601.13;;;9.65;100.00
10008;BME280;5043;41.766;26.204;2024-02-14T02:37:24;100557.94;;;9.43;100.00
10008;BME280;5043;41.766;26.204;2024-02-14T02:39:50;100597.00;;;9.74;100.00
10008;BME280;5043;41.766;26.204;2024-02-14T02:42:16;100564.06;;;9.31;100.00
10008;BME280;5043;41.766;26.204;2024-02-14T02:44:46;100608.06;;;9.79;100.00
10008;BME280;5043;41.766;26.204;2024-02-14T02:47:11;100594.56;;;9.71;100.00
10008;BME280;5043;41.766;26.204;2024-02-14T02:49:38;100616.81;;;9.80;100.00
10008;BME280;5043;41.766;26.204;2024-02-14T02:52:04;100621.22;;;9.79;100.00
10008;BME280;5043;41.766;26.204;2024-02-14T02:54:29;100630.19;;;9.77;100.00
10008;BME280;5043;41.766;26.204;2024-02-14T02:56:54;100608.72;;;9.70;100.00
10008;BME280;5043;41.766;26.204;2024-02-14T02:59:20;100611.34;;;9.70;100.00
10008;BME280;5043;41.766;26.204;2024-02-14T03:01:47;100602.81;;;9.54;100.00
10008;BME280;5043;41.766;26.204;2024-02-14T03:04:15;100612.81;;;9.61;100.00
10008;BME280;5043;41.766;26.204;2024-02-14T03:06:40;100605.34;;;9.43;100.00
10008;BME280;5043;41.766;26.204;2024-02-14T03:09:05;100617.66;;;9.55;100.00
10008;BME280;5043;41.766;26.204;2024-02-14T03:11:32;100641.25;;;9.69;100.00
10008;BME280;5043;41.766;26.204;2024-02-14T03:13:58;100610.72;;;9.54;100.00
10008;BME280;5043;41.766;26.204;2024-02-14T03:16:23;100631.56;;;9.57;100.00
10008;BME280;5043;41.766;26.204;2024-02-14T03:18:50;100650.94;;;9.68;100.00
10008;BME280;5043;41.766;26.204;2024-02-14T03:21:15;100644.00;;;9.67;100.00
10008;BME280;5043;41.766;26.204;2024-02-14T03:23:40;100617.66;;;9.55;100.00
10008;BME280;5043;41.766;26.204;2024-02-14T03:26:06;100638.94;;;9.64;100.00
10008;BME280;5043;41.766;26.204;2024-02-14T03:28:34;100660.94;;;9.76;100.00
10008;BME280;5043;41.766;26.204;2024-02-14T03:30:59;100640.84;;;9.62;100.00
10008;BME280;5043;41.766;26.204;2024-02-14T03:33:24;100667.47;;;9.83;100.00
10008;BME280;5043;41.766;26.204;2024-02-14T03:35:50;100660.56;;;9.82;100.00
10008;BME280;5043;41.766;26.204;2024-02-14T03:38:28;100671.59;;;9.87;100.00
10008;BME280;5043;41.766;26.204;2024-02-14T03:40:54;100597.22;;;9.46;100.00
10008;BME280;5043;41.766;26.204;2024-02-14T03:43:20;100663.06;;;9.84;100.00
10008;BME280;5043;41.766;26.204;2024-02-14T03:45:47;100669.59;;;9.78;100.00
10008;BME280;5043;41.766;26.204;2024-02-14T03:48:12;100665.06;;;9.80;100.00
10008;BME280;5043;41.766;26.204;2024-02-14T03:50:40;100672.03;;;9.81;100.00
10008;BME280;5043;41.766;26.204;2024-02-14T03:53:08;100646.22;;;9.61;100.00
10008;BME280;5043;41.766;26.204;2024-02-14T03:55:36;100662.84;;;9.61;100.00
10008;BME280;5043;41.766;26.204;2024-02-14T03:58:02;100669.28;;;9.70;100.00
10008;BME280;5043;41.766;26.204;2024-02-14T04:00:29;100674.56;;;9.70;100.00
10008;BME280;5043;41.766;26.204;2024-02-14T04:02:55;100638.09;;;9.51;100.00
10008;BME280;5043;41.766;26.204;2024-02-14T04:05:27;100669.28;;;9.57;100.00
10008;BME280;5043;41.766;26.204;2024-02-14T04:07:55;100666.25;;;9.63;100.00
10008;BME280;5043;41.766;26.204;2024-02-14T04:10:21;100682.75;;;9.78;100.00
10008;BME280;5043;41.766;26.204;2024-02-14T04:12:46;100687.63;;;9.84;100.00
10008;BME280;5043;41.766;26.204;2024-02-14T04:15:12;100694.47;;;9.87;100.00
10008;BME280;5043;41.766;26.204;2024-02-14T04:17:39;100695.28;;;9.87;100.00
10008;BME280;5043;41.766;26.204;2024-02-14T04:20:05;100702.78;;;9.93;100.00
10008;BME280;5043;41.766;26.204;2024-02-14T04:22:31;100700.03;;;9.95;100.00
10008;BME280;5043;41.766;26.204;2024-02-14T04:24:56;100703.09;;;9.76;100.00
10008;BME280;5043;41.766;26.204;2024-02-14T04:27:22;100703.44;;;9.84;100.00
10008;BME280;5043;41.766;26.204;2024-02-14T04:29:47;100696.16;;;9.75;100.00
10008;BME280;5043;41.766;26.204;2024-02-14T04:32:13;100691.41;;;9.67;100.00
10008;BME280;5043;41.766;26.204;2024-02-14T04:34:39;100693.94;;;9.69;100.00
10008;BME280;5043;41.766;26.204;2024-02-14T04:37:08;100696.03;;;9.64;100.00
10008;BME280;5043;41.766;26.204;2024-02-14T04:39:37;100722.06;;;9.81;100.00
10008;BME280;5043;41.766;26.204;2024-02-14T04:42:03;100720.59;;;9.64;100.00
10008;BME280;5043;41.766;26.204;2024-02-14T04:44:30;100729.97;;;9.81;100.00
10008;BME280;5043;41.766;26.204;2024-02-14T04:46:59;100734.19;;;9.84;100.00
10008;BME280;5043;41.766;26.204;2024-02-14T04:49:25;100717.53;;;9.70;100.00
10008;BME280;5043;41.766;26.204;2024-02-14T04:51:51;100742.00;;;9.85;100.00
10008;BME280;5043;41.766;26.204;2024-02-14T04:54:18;100732.50;;;9.83;100.00
10008;BME280;5043;41.766;26.204;2024-02-14T04:56:43;100735.88;;;9.85;100.00
10008;BME280;5043;41.766;26.204;2024-02-14T04:59:10;100677.38;;;9.42;100.00
10008;BME280;5043;41.766;26.204;2024-02-14T05:01:36;100749.34;;;9.80;100.00
10008;BME280;5043;41.766;26.204;2024-02-14T05:04:02;100723.09;;;9.66;100.00
10008;BME280;5043;41.766;26.204;2024-02-14T05:06:29;100757.72;;;9.87;100.00
10008;BME280;5043;41.766;26.204;2024-02-14T05:08:55;100755.06;;;9.87;100.00
10008;BME280;5043;41.766;26.204;2024-02-14T05:11:20;100761.09;;;9.89;99.87
10008;BME280;5043;41.766;26.204;2024-02-14T05:13:45;100768.88;;;9.90;100.00
10008;BME280;5043;41.766;26.204;2024-02-14T05:16:12;100761.91;;;9.77;100.00
10008;BME280;5043;41.766;26.204;2024-02-14T05:18:38;100747.66;;;9.66;100.00
10008;BME280;5043;41.766;26.204;2024-02-14T05:21:06;100790.25;;;9.86;100.00
10008;BME280;5043;41.766;26.204;2024-02-14T05:23:33;100777.81;;;9.88;100.00
10008;BME280;5043;41.766;26.204;2024-02-14T05:25:59;100780.66;;;9.85;100.00
10008;BME280;5043;41.766;26.204;2024-02-14T05:28:25;100810.19;;;9.90;99.52
10008;BME280;5043;41.766;26.204;2024-02-14T05:30:51;100792.38;;;9.93;99.54
10008;BME280;5043;41.766;26.204;2024-02-14T05:33:16;100798.19;;;9.98;99.17
10008;BME280;5043;41.766;26.204;2024-02-14T05:35:43;100793.97;;;9.96;99.09
10008;BME280;5043;41.766;26.204;2024-02-14T05:38:09;100816.09;;;9.93;99.35
10008;BME280;5043;41.766;26.204;2024-02-14T05:40:34;100712.53;;;9.41;99.24
10008;BME280;5043;41.766;26.204;2024-02-14T05:43:03;100794.28;;;9.91;99.97
10008;BME280;5043;41.766;26.204;2024-02-14T05:45:28;100783.84;;;9.77;99.52
10008;BME280;5043;41.766;26.204;2024-02-14T05:47:54;100790.25;;;9.86;99.47
10008;BME280;5043;41.766;26.204;2024-02-14T05:50:19;100773.84;;;9.82;99.28
10008;BME280;5043;41.766;26.204;2024-02-14T05:52:45;100780.38;;;9.89;99.02
10008;BME280;5043;41.766;26.204;2024-02-14T05:55:10;100822.66;;;10.13;98.80
10008;BME280;5043;41.766;26.204;2024-02-14T05:57:36;100787.19;;;9.92;98.55
10008;BME280;5043;41.766;26.204;2024-02-14T06:00:05;100831.28;;;10.02;98.95
10008;BME280;5043;41.766;26.204;2024-02-14T06:02:30;100822.22;;;10.06;98.93
10008;BME280;5043;41.766;26.204;2024-02-14T06:04:56;100755.69;;;9.65;99.02
10008;BME280;5043;41.766;26.204;2024-02-14T06:07:22;100800.38;;;9.92;98.76
10008;BME280;5043;41.766;26.204;2024-02-14T06:09:47;100823.31;;;10.16;98.86
10008;BME280;5043;41.766;26.204;2024-02-14T06:12:12;100816.59;;;10.12;98.80
10008;BME280;5043;41.766;26.204;2024-02-14T06:14:38;100825.22;;;10.14;98.66
10008;BME280;5043;41.766;26.204;2024-02-14T06:17:04;100806.63;;;10.03;98.56
10008;BME280;5043;41.766;26.204;2024-02-14T06:19:30;100833.25;;;10.25;98.99
10008;BME280;5043;41.766;26.204;2024-02-14T06:21:56;100838.63;;;10.36;98.71
10008;BME280;5043;41.766;26.204;2024-02-14T06:24:21;100806.75;;;10.27;97.91
10008;BME280;5043;41.766;26.204;2024-02-14T06:26:47;100755.59;;;10.04;97.91
10008;BME280;5043;41.766;26.204;2024-02-14T06:29:12;100814.34;;;10.57;96.75
10008;BME280;5043;41.766;26.204;2024-02-14T06:31:38;100832.59;;;10.60;96.51
10008;BME280;5043;41.766;26.204;2024-02-14T06:34:03;100858.22;;;10.70;95.90
10008;BME280;5043;41.766;26.204;2024-02-14T06:36:30;100866.03;;;10.72;95.64
10008;BME280;5043;41.766;26.204;2024-02-14T06:38:55;100846.41;;;10.63;95.56
10008;BME280;5043;41.766;26.204;2024-02-14T06:41:21;100866.88;;;10.72;95.52
10008;BME280;5043;41.766;26.204;2024-02-14T06:43:46;100867.53;;;10.76;96.25
10008;BME280;5043;41.766;26.204;2024-02-14T06:46:12;100766.25;;;10.15;95.50
10008;BME280;5043;41.766;26.204;2024-02-14T06:48:37;100805.06;;;10.38;95.02
10008;BME280;5043;41.766;26.204;2024-02-14T06:51:03;100846.41;;;10.51;95.52
10008;BME280;5043;41.766;26.204;2024-02-14T06:53:28;100839.66;;;10.47;95.70
10008;BME280;5043;41.766;26.204;2024-02-14T06:55:55;100880.59;;;10.65;95.93
10008;BME280;5043;41.766;26.204;2024-02-14T06:58:21;100873.13;;;10.59;96.04
10008;BME280;5043;41.766;26.204;2024-02-14T07:00:46;100867.72;;;10.60;96.04
10008;BME280;5043;41.766;26.204;2024-02-14T07:03:12;100879.03;;;10.75;95.94
10008;BME280;5043;41.766;26.204;2024-02-14T07:05:37;100903.69;;;10.74;94.87
10008;BME280;5043;41.766;26.204;2024-02-14T07:08:03;100851.91;;;10.60;94.46
10008;BME280;5043;41.766;26.204;2024-02-14T07:10:29;100870.44;;;10.84;94.26
10008;BME280;5043;41.766;26.204;2024-02-14T07:12:55;100881.66;;;10.75;94.01
10008;BME280;5043;41.766;26.204;2024-02-14T07:15:20;100874.47;;;10.77;94.34
10008;BME280;5043;41.766;26.204;2024-02-14T07:17:45;100863.63;;;10.69;93.89
10008;BME280;5043;41.766;26.204;2024-02-14T07:20:11;100889.91;;;10.83;93.54
10008;BME280;5043;41.766;26.204;2024-02-14T07:22:37;100885.03;;;10.77;94.13
10008;BME280;5043;41.766;26.204;2024-02-14T07:25:03;100866.88;;;10.72;93.76
10008;BME280;5043;41.766;26.204;2024-02-14T07:27:30;100899.06;;;10.90;94.29
10008;BME280;5043;41.766;26.204;2024-02-14T07:29:56;100883.56;;;10.73;93.17
10008;BME280;5043;41.766;26.204;2024-02-14T07:32:21;100865.75;;;10.64;93.73
10008;BME280;5043;41.766;26.204;2024-02-14T07:34:47;100899.06;;;10.90;93.20
10008;BME280;5043;41.766;26.204;2024-02-14T07:37:12;100898.75;;;10.82;93.79
10008;BME280;5043;41.766;26.204;2024-02-14T07:39:40;100845.69;;;10.49;93.25
10008;BME280;5043;41.766;26.204;2024-02-14T07:42:06;100914.16;;;10.88;93.40
10008;BME280;5043;41.766;26.204;2024-02-14T07:44:32;100916.38;;;10.81;93.46
10008;BME280;5043;41.766;26.204;2024-02-14T07:46:57;100885.66;;;10.68;94.04
10008;BME280;5043;41.766;26.204;2024-02-14T07:49:23;100920.81;;;10.81;94.10
10008;BME280;5043;41.766;26.204;2024-02-14T07:51:49;100922.81;;;10.90;94.24
10008;BME280;5043;41.766;26.204;2024-02-14T07:54:15;100921.78;;;10.92;93.69
10008;BME280;5043;41.766;26.204;2024-02-14T07:56:40;100921.97;;;10.89;94.20
10008;BME280;5043;41.766;26.204;2024-02-14T07:59:06;100934.75;;;10.83;94.04
10008;BME280;5043;41.766;26.204;2024-02-14T08:01:31;100921.03;;;10.78;93.96
10008;BME280;5043;41.766;26.204;2024-02-14T08:03:58;100924.94;;;10.72;94.01
10008;BME280;5043;41.766;26.204;2024-02-14T08:06:24;100932.00;;;10.72;94.44
10008;BME280;5043;41.766;26.204;2024-02-14T08:08:49;100948.56;;;10.74;94.30
10008;BME280;5043;41.766;26.204;2024-02-14T08:11:19;100938.66;;;10.77;94.73
10008;BME280;5043;41.766;26.204;2024-02-14T08:13:45;100930.84;;;10.76;94.56
10008;BME280;5043;41.766;26.204;2024-02-14T08:16:10;100923.97;;;10.61;94.75
10008;BME280;5043;41.766;26.204;2024-02-14T08:18:36;100945.31;;;10.83;94.26
10008;BME280;5043;41.766;26.204;2024-02-14T08:21:02;100949.00;;;10.93;93.77
10008;BME280;5043;41.766;26.204;2024-02-14T08:23:29;100944.13;;;10.99;93.26
10008;BME280;5043;41.766;26.204;2024-02-14T08:25:55;100951.75;;;11.04;92.94
10008;BME280;5043;41.766;26.204;2024-02-14T08:28:20;100937.16;;;11.11;92.84
10008;BME280;5043;41.766;26.204;2024-02-14T08:30:46;100943.44;;;11.34;92.20
10008;BME280;5043;41.766;26.204;2024-02-14T08:33:13;100952.09;;;11.48;91.88
10008;BME280;5043;41.766;26.204;2024-02-14T08:35:38;100948.44;;;11.62;91.83
10008;BME280;5043;41.766;26.204;2024-02-14T08:38:04;100956.84;;;11.80;91.69
10008;BME280;5043;41.766;26.204;2024-02-14T08:40:30;100957.41;;;11.96;90.36
10008;BME280;5043;41.766;26.204;2024-02-14T08:42:55;100960.56;;;12.01;89.39
10008;BME280;5043;41.766;26.204;2024-02-14T08:45:21;100957.00;;;12.02;89.12
10008;BME280;5043;41.766;26.204;2024-02-14T08:47:48;100964.97;;;12.13;87.99
10008;BME280;5043;41.766;26.204;2024-02-14T08:50:13;100960.00;;;12.32;76.17
10008;BME280;5043;41.766;26.204;2024-02-14T08:52:39;100971.47;;;12.43;72.82
10008;BME280;5043;41.766;26.204;2024-02-14T08:55:06;100937.41;;;12.39;70.28
10008;BME280;5043;41.766;26.204;2024-02-14T08:57:36;100976.94;;;12.64;68.59
10008;BME280;5043;41.766;26.204;2024-02-14T09:00:02;100986.22;;;12.70;67.82
10008;BME280;5043;41.766;26.204;2024-02-14T09:02:29;100970.69;;;12.76;66.25
10008;BME280;5043;41.766;26.204;2024-02-14T09:04:55;100982.38;;;12.74;63.41
10008;BME280;5043;41.766;26.204;2024-02-14T09:07:21;100989.94;;;12.78;63.43
10008;BME280;5043;41.766;26.204;2024-02-14T09:09:47;100936.25;;;12.54;63.35
10008;BME280;5043;41.766;26.204;2024-02-14T09:12:13;100981.06;;;12.79;63.10
10008;BME280;5043;41.766;26.204;2024-02-14T09:14:39;100981.78;;;12.70;62.76
10008;BME280;5043;41.766;26.204;2024-02-14T09:17:04;100983.06;;;12.65;63.10
10008;BME280;5043;41.766;26.204;2024-02-14T09:19:30;100898.47;;;12.06;63.59
10008;BME280;5043;41.766;26.204;2024-02-14T09:21:56;100989.19;;;12.54;62.75
10008;BME280;5043;41.766;26.204;2024-02-14T09:24:22;100985.06;;;12.50;62.44
10008;BME280;5043;41.766;26.204;2024-02-14T09:26:47;100980.13;;;12.46;62.97
10008;BME280;5043;41.766;26.204;2024-02-14T09:29:13;100990.19;;;12.40;63.88
10008;BME280;5043;41.766;26.204;2024-02-14T09:31:40;100990.03;;;12.31;63.37
10008;BME280;5043;41.766;26.204;2024-02-14T09:34:06;100979.47;;;12.31;63.88
10008;BME280;5043;41.766;26.204;2024-02-14T09:36:33;100990.81;;;12.33;64.87
10008;BME280;5043;41.766;26.204;2024-02-14T09:38:59;100987.47;;;12.42;64.92
10008;BME280;5043;41.766;26.204;2024-02-14T09:41:40;100971.47;;;12.43;64.59
10008;BME280;5043;41.766;26.204;2024-02-14T09:44:08;100969.91;;;12.52;65.30
10008;BME280;5043;41.766;26.204;2024-02-14T09:46:36;100953.56;;;12.47;66.06
10008;BME280;5043;41.766;26.204;2024-02-14T09:49:03;100956.63;;;12.30;65.56
10008;BME280;5043;41.766;26.204;2024-02-14T09:51:31;100947.00;;;12.29;65.94
10008;BME280;5043;41.766;26.204;2024-02-14T09:53:59;100980.03;;;12.47;66.37
10008;BME280;5043;41.766;26.204;2024-02-14T09:56:26;100954.47;;;12.35;65.69
10008;BME280;5043;41.766;26.204;2024-02-14T09:58:53;100953.47;;;12.25;65.55
10008;BME280;5043;41.766;26.204;2024-02-14T10:01:25;100979.31;;;12.56;65.30
10008;BME280;5043;41.766;26.204;2024-02-14T10:03:53;100988.13;;;12.68;65.76
10008;BME280;5043;41.766;26.204;2024-02-14T10:06:19;100987.06;;;12.70;65.15
10008;BME280;5043;41.766;26.204;2024-02-14T10:08:48;100989.34;;;12.75;65.50
10008;BME280;5043;41.766;26.204;2024-02-14T10:11:14;100979.41;;;12.89;64.74
10008;BME280;5043;41.766;26.204;2024-02-14T10:13:43;100976.25;;;12.84;63.66
10008;BME280;5043;41.766;26.204;2024-02-14T10:16:11;100970.56;;;12.78;63.99
10008;BME280;5043;41.766;26.204;2024-02-14T10:18:38;100990.59;;;12.82;64.40
10008;BME280;5043;41.766;26.204;2024-02-14T10:21:04;100972.63;;;12.74;64.93
10008;BME280;5043;41.766;26.204;2024-02-14T10:23:30;100976.50;;;12.81;65.61
10008;BME280;5043;41.766;26.204;2024-02-14T10:25:58;100980.72;;;12.95;65.14
10008;BME280;5043;41.766;26.204;2024-02-14T10:28:24;100984.94;;;12.97;64.26
10008;BME280;5043;41.766;26.204;2024-02-14T10:30:50;100973.78;;;13.16;63.14
10008;BME280;5043;41.766;26.204;2024-02-14T10:33:16;100988.59;;;13.19;61.68
10008;BME280;5043;41.766;26.204;2024-02-14T10:35:43;100975.84;;;13.24;61.62
10008;BME280;5043;41.766;26.204;2024-02-14T10:38:11;100979.44;;;13.12;61.31
10008;BME280;5043;41.766;26.204;2024-02-14T10:40:38;100948.59;;;13.10;60.56
10008;BME280;5043;41.766;26.204;2024-02-14T10:43:06;100977.75;;;13.33;61.30
10008;BME280;5043;41.766;26.204;2024-02-14T10:45:32;100976.09;;;13.43;61.03
10008;BME280;5043;41.766;26.204;2024-02-14T10:48:00;100965.69;;;13.62;60.15
10008;BME280;5043;41.766;26.204;2024-02-14T10:50:27;100967.16;;;13.55;58.53
10008;BME280;5043;41.766;26.204;2024-02-14T10:52:57;100957.03;;;13.49;58.44
10008;BME280;5043;41.766;26.204;2024-02-14T10:55:24;100951.34;;;13.53;58.72
10008;BME280;5043;41.766;26.204;2024-02-14T10:57:53;100975.66;;;13.69;57.45
10008;BME280;5043;41.766;26.204;2024-02-14T11:00:20;100956.88;;;13.72;55.95
10008;BME280;5043;41.766;26.204;2024-02-14T11:02:47;100974.56;;;13.72;56.97
10008;BME280;5043;41.766;26.204;2024-02-14T11:05:14;100916.31;;;13.39;57.70
10008;BME280;5043;41.766;26.204;2024-02-14T11:07:46;100955.84;;;13.31;59.10
10008;BME280;5043;41.766;26.204;2024-02-14T11:10:16;100902.34;;;12.92;59.90
10008;BME280;5043;41.766;26.204;2024-02-14T11:12:42;100952.84;;;13.35;61.40
10008;BME280;5043;41.766;26.204;2024-02-14T11:15:21;100961.25;;;13.40;60.09
10008;BME280;5043;41.766;26.204;2024-02-14T11:17:47;100959.94;;;13.35;58.62
10008;BME280;5043;41.766;26.204;2024-02-14T11:20:21;100970.53;;;13.35;58.98
10008;BME280;5043;41.766;26.204;2024-02-14T11:23:06;100973.19;;;13.35;58.91
10008;BME280;5043;41.766;26.204;2024-02-14T11:25:34;100960.16;;;13.32;58.69
10008;BME280;5043;41.766;26.204;2024-02-14T11:28:24;100972.69;;;13.52;56.79
10008;BME280;5043;41.766;26.204;2024-02-14T11:30:51;100973.38;;;13.65;56.57
10008;BME280;5043;41.766;26.204;2024-02-14T11:35:50;100971.03;;;13.94;55.02
10008;BME280;5043;41.766;26.204;2024-02-14T11:38:17;100967.91;;;13.89;56.17
10008;BME280;5043;41.766;26.204;2024-02-14T11:40:43;100971.41;;;13.89;56.71
10008;BME280;5043;41.766;26.204;2024-02-14T11:43:16;100972.09;;;14.02;54.91
10008;BME280;5043;41.766;26.204;2024-02-14T11:45:46;100944.66;;;13.92;53.49
10008;BME280;5043;41.766;26.204;2024-02-14T11:48:15;100964.72;;;14.06;53.71
10008;BME280;5043;41.766;26.204;2024-02-14T11:50:43;100890.19;;;13.77;53.48
10008;BME280;5043;41.766;26.204;2024-02-14T11:53:11;100983.59;;;14.34;53.79
10008;BME280;5043;41.766;26.204;2024-02-14T11:55:38;100945.94;;;13.98;52.65
10008;BME280;5043;41.766;26.204;2024-02-14T11:58:07;101006.06;;;14.19;52.91
10008;BME280;5043;41.766;26.204;2024-02-14T12:00:33;100915.00;;;13.87;52.95
10008;BME280;5043;41.766;26.204;2024-02-14T12:03:01;100961.75;;;14.31;51.82
10008;BME280;5043;41.766;26.204;2024-02-14T12:05:27;101007.91;;;14.51;52.04
10008;BME280;5043;41.766;26.204;2024-02-14T12:07:53;100987.63;;;14.50;51.74
10008;BME280;5043;41.766;26.204;2024-02-14T12:10:19;100958.50;;;14.27;52.34
10008;BME280;5043;41.766;26.204;2024-02-14T12:12:47;100983.22;;;14.28;52.51
10008;BME280;5043;41.766;26.204;2024-02-14T12:15:13;100986.13;;;14.25;52.27
10008;BME280;5043;41.766;26.204;2024-02-14T12:17:41;100969.72;;;13.99;53.06
10008;BME280;5043;41.766;26.204;2024-02-14T12:20:11;100958.56;;;14.05;52.88
10008;BME280;5043;41.766;26.204;2024-02-14T12:22:38;100978.19;;;14.14;52.75
10008;BME280;5043;41.766;26.204;2024-02-14T12:25:05;100980.22;;;14.21;53.30
10008;BME280;5043;41.766;26.204;2024-02-14T12:27:32;100997.16;;;14.09;53.63
10008;BME280;5043;41.766;26.204;2024-02-14T12:29:58;100950.56;;;13.85;54.33
10008;BME280;5043;41.766;26.204;2024-02-14T12:32:24;100986.34;;;14.01;54.64
10008;BME280;5043;41.766;26.204;2024-02-14T12:34:49;100970.31;;;13.92;55.23
10008;BME280;5043;41.766;26.204;2024-02-14T12:37:15;100951.44;;;13.74;55.81
10008;BME280;5043;41.766;26.204;2024-02-14T12:39:40;100972.88;;;13.82;56.63
10008;BME280;5043;41.766;26.204;2024-02-14T12:42:06;100973.53;;;13.63;57.03
10008;BME280;5043;41.766;26.204;2024-02-14T12:44:31;100979.91;;;13.61;58.37
10008;BME280;5043;41.766;26.204;2024-02-14T12:46:57;100984.97;;;13.53;58.90
10008;BME280;5043;41.766;26.204;2024-02-14T12:49:23;100999.94;;;13.43;58.78